sensor_id;sensor_type;location;lat;lon;timestamp;pressure;altitude;pressure_sealevel;temperature;humidity
39075;BME280;24826;52.070;20.970;2023-04-05T00:00:03;61442.41;;;-147.04;58.52
39075;BME280;24826;52.070;20.970;2023-04-05T00:03:12;61436.44;;;-147.04;57.90
39075;BME280;24826;52.070;20.970;2023-04-05T00:05:56;61448.38;;;-147.04;58.00
39075;BME280;24826;52.070;20.970;2023-04-05T00:08:41;61408.59;;;-147.04;58.35
39075;BME280;24826;52.070;20.970;2023-04-05T00:11:28;61458.31;;;-147.04;59.03
39075;BME280;24826;52.070;20.970;2023-04-05T00:14:13;61432.47;;;-147.04;59.16
39075;BME280;24826;52.070;20.970;2023-04-05T00:16:58;61368.84;;;-147.04;58.82
39075;BME280;24826;52.070;20.970;2023-04-05T00:19:42;61444.41;;;-147.04;58.61
39075;BME280;24826;52.070;20.970;2023-04-05T00:22:28;61424.50;;;-147.04;58.89
39075;BME280;24826;52.070;20.970;2023-04-05T00:25:18;61444.41;;;-147.04;58.82
39075;BME280;24826;52.070;20.970;2023-04-05T00:28:05;61462.28;;;-147.04;58.48
39075;BME280;24826;52.070;20.970;2023-04-05T00:30:51;61440.41;;;-147.04;57.93
39075;BME280;24826;52.070;20.970;2023-04-05T00:33:36;61428.47;;;-147.04;58.04
39075;BME280;24826;52.070;20.970;2023-04-05T00:36:20;61555.75;;;-147.04;56.92
39075;BME280;24826;52.070;20.970;2023-04-05T00:39:05;61436.44;;;-147.04;57.33
39075;BME280;24826;52.070;20.970;2023-04-05T00:41:49;61444.41;;;-147.04;57.35
39075;BME280;24826;52.070;20.970;2023-04-05T00:44:34;61406.63;;;-147.04;57.83
39075;BME280;24826;52.070;20.970;2023-04-05T00:47:19;61440.41;;;-147.04;58.41
39075;BME280;24826;52.070;20.970;2023-04-05T00:50:04;61440.41;;;-147.04;58.53
39075;BME280;24826;52.070;20.970;2023-04-05T00:52:49;61392.69;;;-147.04;59.36
39075;BME280;24826;52.070;20.970;2023-04-05T00:55:35;61502.06;;;-147.04;60.11
39075;BME280;24826;52.070;20.970;2023-04-05T00:58:20;61464.28;;;-147.04;59.16
39075;BME280;24826;52.070;20.970;2023-04-05T01:01:18;61456.31;;;-147.04;58.50
39075;BME280;24826;52.070;20.970;2023-04-05T01:04:04;61404.63;;;-147.04;59.40
39075;BME280;24826;52.070;20.970;2023-04-05T01:07:23;61436.44;;;-147.04;59.57
39075;BME280;24826;52.070;20.970;2023-04-05T01:10:12;61454.34;;;-147.04;59.95
39075;BME280;24826;52.070;20.970;2023-04-05T01:12:58;61555.75;;;-147.04;59.35
39075;BME280;24826;52.070;20.970;2023-04-05T01:15:42;61456.31;;;-147.04;59.22
39075;BME280;24826;52.070;20.970;2023-04-05T01:18:27;61432.47;;;-147.04;59.68
39075;BME280;24826;52.070;20.970;2023-04-05T01:24:56;61472.22;;;-147.04;61.88
39075;BME280;24826;52.070;20.970;2023-04-05T01:31:14;61448.38;;;-147.04;62.03
39075;BME280;24826;52.070;20.970;2023-04-05T01:34:31;61476.22;;;-147.04;63.23
39075;BME280;24826;52.070;20.970;2023-04-05T01:37:25;61456.31;;;-147.04;62.63
39075;BME280;24826;52.070;20.970;2023-04-05T01:40:10;61500.06;;;-147.04;61.97
39075;BME280;24826;52.070;20.970;2023-04-05T01:42:55;61464.28;;;-147.04;61.97
39075;BME280;24826;52.070;20.970;2023-04-05T01:45:40;61446.38;;;-147.04;61.44
39075;BME280;24826;52.070;20.970;2023-04-05T01:48:25;61472.22;;;-147.04;61.65
39075;BME280;24826;52.070;20.970;2023-04-05T01:51:10;61468.25;;;-147.04;62.62
39075;BME280;24826;52.070;20.970;2023-04-05T01:53:55;61492.13;;;-147.04;62.25
39075;BME280;24826;52.070;20.970;2023-04-05T01:56:39;61474.22;;;-147.04;61.93
39075;BME280;24826;52.070;20.970;2023-04-05T01:59:24;61458.31;;;-147.04;61.60
39075;BME280;24826;52.070;20.970;2023-04-05T02:02:08;61444.41;;;-147.04;62.50
39075;BME280;24826;52.070;20.970;2023-04-05T02:04:53;61484.16;;;-147.04;62.61
39075;BME280;24826;52.070;20.970;2023-04-05T02:07:37;61474.22;;;-147.04;63.52
39075;BME280;24826;52.070;20.970;2023-04-05T02:10:23;61581.59;;;-147.04;64.85
39075;BME280;24826;52.070;20.970;2023-04-05T02:13:09;61492.13;;;-147.04;65.71
39075;BME280;24826;52.070;20.970;2023-04-05T02:15:53;61456.31;;;-147.04;66.46
39075;BME280;24826;52.070;20.970;2023-04-05T02:18:37;61482.19;;;-147.04;67.80
39075;BME280;24826;52.070;20.970;2023-04-05T02:21:22;61498.09;;;-147.04;67.98
39075;BME280;24826;52.070;20.970;2023-04-05T02:24:06;61480.19;;;-147.04;67.44
39075;BME280;24826;52.070;20.970;2023-04-05T02:26:51;61466.25;;;-147.04;68.55
39075;BME280;24826;52.070;20.970;2023-04-05T02:29:35;61488.13;;;-147.04;69.29
39075;BME280;24826;52.070;20.970;2023-04-05T02:32:20;61438.44;;;-147.04;70.43
39075;BME280;24826;52.070;20.970;2023-04-05T02:35:05;61502.06;;;-147.04;72.54
39075;BME280;24826;52.070;20.970;2023-04-05T02:37:49;61510.00;;;-147.04;74.23
39075;BME280;24826;52.070;20.970;2023-04-05T02:40:34;61577.63;;;-147.04;72.73
39075;BME280;24826;52.070;20.970;2023-04-05T02:43:19;61476.22;;;-147.04;72.98
39075;BME280;24826;52.070;20.970;2023-04-05T02:46:03;61531.88;;;-147.04;72.46
39075;BME280;24826;52.070;20.970;2023-04-05T02:48:48;61456.31;;;-147.04;72.08
39075;BME280;24826;52.070;20.970;2023-04-05T02:51:32;61444.41;;;-147.04;71.95
39075;BME280;24826;52.070;20.970;2023-04-05T02:54:17;61434.44;;;-147.04;73.41
39075;BME280;24826;52.070;20.970;2023-04-05T02:57:01;61460.31;;;-147.04;74.12
39075;BME280;24826;52.070;20.970;2023-04-05T02:59:46;61470.25;;;-147.04;74.21
39075;BME280;24826;52.070;20.970;2023-04-05T03:02:31;61504.03;;;-147.04;73.58
39075;BME280;24826;52.070;20.970;2023-04-05T03:05:16;61514.00;;;-147.04;73.80
39075;BME280;24826;52.070;20.970;2023-04-05T03:08:01;61510.00;;;-147.04;74.82
39075;BME280;24826;52.070;20.970;2023-04-05T03:10:46;61474.22;;;-147.04;74.55
39075;BME280;24826;52.070;20.970;2023-04-05T03:13:31;61490.13;;;-147.04;75.05
39075;BME280;24826;52.070;20.970;2023-04-05T03:16:15;61492.13;;;-147.04;75.55
39075;BME280;24826;52.070;20.970;2023-04-05T03:18:59;61500.06;;;-147.04;75.17
39075;BME280;24826;52.070;20.970;2023-04-05T03:21:45;61468.25;;;-147.04;75.08
39075;BME280;24826;52.070;20.970;2023-04-05T03:24:30;61609.44;;;-147.04;75.85
39075;BME280;24826;52.070;20.970;2023-04-05T03:27:15;61492.13;;;-147.04;77.29
39075;BME280;24826;52.070;20.970;2023-04-05T03:30:00;61579.59;;;-147.04;78.15
39075;BME280;24826;52.070;20.970;2023-04-05T03:32:44;61486.16;;;-147.04;78.67
39075;BME280;24826;52.070;20.970;2023-04-05T03:35:29;61488.13;;;-147.04;78.86
39075;BME280;24826;52.070;20.970;2023-04-05T03:38:14;61515.97;;;-147.04;78.50
39075;BME280;24826;52.070;20.970;2023-04-05T03:41:01;61488.13;;;-147.04;77.64
39075;BME280;24826;52.070;20.970;2023-04-05T03:43:46;61464.28;;;-147.04;77.69
39075;BME280;24826;52.070;20.970;2023-04-05T03:46:31;61480.19;;;-147.04;77.44
39075;BME280;24826;52.070;20.970;2023-04-05T03:49:16;61460.31;;;-147.04;76.64
39075;BME280;24826;52.070;20.970;2023-04-05T03:52:01;61615.41;;;-147.04;77.13
39075;BME280;24826;52.070;20.970;2023-04-05T03:54:45;61458.31;;;-147.04;78.29
39075;BME280;24826;52.070;20.970;2023-04-05T03:57:30;61490.13;;;-147.04;78.30
39075;BME280;24826;52.070;20.970;2023-04-05T04:00:14;61474.22;;;-147.04;78.88
39075;BME280;24826;52.070;20.970;2023-04-05T04:03:02;61492.13;;;-147.04;79.50
39075;BME280;24826;52.070;20.970;2023-04-05T04:05:47;61486.16;;;-147.04;79.62
39075;BME280;24826;52.070;20.970;2023-04-05T04:08:31;61484.16;;;-147.04;80.49
39075;BME280;24826;52.070;20.970;2023-04-05T04:11:16;61458.31;;;-147.04;79.20
39075;BME280;24826;52.070;20.970;2023-04-05T04:14:01;61464.28;;;-147.04;79.28
39075;BME280;24826;52.070;20.970;2023-04-05T04:16:45;61494.09;;;-147.04;80.39
39075;BME280;24826;52.070;20.970;2023-04-05T04:19:30;61468.25;;;-147.04;81.67
39075;BME280;24826;52.070;20.970;2023-04-05T04:22:14;61448.38;;;-147.04;81.59
39075;BME280;24826;52.070;20.970;2023-04-05T04:25:07;61496.09;;;-147.04;80.21
39075;BME280;24826;52.070;20.970;2023-04-05T04:27:53;61476.22;;;-147.04;81.10
39075;BME280;24826;52.070;20.970;2023-04-05T04:30:38;61464.28;;;-147.04;81.67
39075;BME280;24826;52.070;20.970;2023-04-05T04:33:22;61474.22;;;-147.04;81.22
39075;BME280;24826;52.070;20.970;2023-04-05T04:36:09;61521.94;;;-147.04;81.04
39075;BME280;24826;52.070;20.970;2023-04-05T04:38:56;61569.66;;;-147.04;81.42
39075;BME280;24826;52.070;20.970;2023-04-05T04:41:44;61523.94;;;-147.04;82.12
39075;BME280;24826;52.070;20.970;2023-04-05T04:44:30;61504.03;;;-147.04;82.23
39075;BME280;24826;52.070;20.970;2023-04-05T04:47:15;61508.03;;;-147.04;81.78
39075;BME280;24826;52.070;20.970;2023-04-05T04:50:00;61498.09;;;-147.04;81.72
39075;BME280;24826;52.070;20.970;2023-04-05T04:52:45;61482.19;;;-147.04;81.39
39075;BME280;24826;52.070;20.970;2023-04-05T04:55:30;61492.13;;;-147.04;81.01
39075;BME280;24826;52.070;20.970;2023-04-05T04:58:16;61671.09;;;-147.04;82.65
39075;BME280;24826;52.070;20.970;2023-04-05T05:01:06;61515.97;;;-147.04;83.24
39075;BME280;24826;52.070;20.970;2023-04-05T05:03:52;61504.03;;;-147.04;83.91
39075;BME280;24826;52.070;20.970;2023-04-05T05:06:36;61512.00;;;-147.04;82.95
39075;BME280;24826;52.070;20.970;2023-04-05T05:09:20;61539.84;;;-147.04;82.92
39075;BME280;24826;52.070;20.970;2023-04-05T05:12:05;61517.97;;;-147.04;82.53
39075;BME280;24826;52.070;20.970;2023-04-05T05:14:50;61508.03;;;-147.04;81.54
39075;BME280;24826;52.070;20.970;2023-04-05T05:17:34;61508.03;;;-147.04;82.46
39075;BME280;24826;52.070;20.970;2023-04-05T05:20:18;61476.22;;;-147.04;81.70
39075;BME280;24826;52.070;20.970;2023-04-05T05:23:03;61416.56;;;-147.04;82.74
39075;BME280;24826;52.070;20.970;2023-04-05T05:25:48;61492.13;;;-147.04;83.65
39075;BME280;24826;52.070;20.970;2023-04-05T05:28:32;61504.03;;;-147.04;83.03
39075;BME280;24826;52.070;20.970;2023-04-05T05:31:17;61525.91;;;-147.04;82.87
39075;BME280;24826;52.070;20.970;2023-04-05T05:34:02;61673.06;;;-147.04;82.76
39075;BME280;24826;52.070;20.970;2023-04-05T05:36:46;61504.03;;;-147.04;84.12
39075;BME280;24826;52.070;20.970;2023-04-05T05:39:31;61474.22;;;-147.04;84.44
39075;BME280;24826;52.070;20.970;2023-04-05T05:42:15;61498.09;;;-147.04;84.56
39075;BME280;24826;52.070;20.970;2023-04-05T05:45:03;61498.09;;;-147.04;85.02
39075;BME280;24826;52.070;20.970;2023-04-05T05:47:48;61521.94;;;-147.04;83.93
39075;BME280;24826;52.070;20.970;2023-04-05T05:50:32;61510.00;;;-147.04;84.46
39075;BME280;24826;52.070;20.970;2023-04-05T05:53:16;61504.03;;;-147.04;85.74
39075;BME280;24826;52.070;20.970;2023-04-05T05:56:01;61480.19;;;-147.04;85.53
39075;BME280;24826;52.070;20.970;2023-04-05T05:58:46;61484.16;;;-147.04;84.13
39075;BME280;24826;52.070;20.970;2023-04-05T06:01:31;61500.06;;;-147.04;84.05
39075;BME280;24826;52.070;20.970;2023-04-05T06:04:17;61512.00;;;-147.04;85.41
39075;BME280;24826;52.070;20.970;2023-04-05T06:07:02;61561.72;;;-147.04;84.77
39075;BME280;24826;52.070;20.970;2023-04-05T06:09:47;61484.16;;;-147.04;84.62
39075;BME280;24826;52.070;20.970;2023-04-05T06:12:32;61460.31;;;-147.04;83.26
39075;BME280;24826;52.070;20.970;2023-04-05T06:15:16;61456.31;;;-147.04;82.38
39075;BME280;24826;52.070;20.970;2023-04-05T06:18:01;61460.31;;;-147.04;83.76
39075;BME280;24826;52.070;20.970;2023-04-05T06:20:45;61480.19;;;-147.04;83.84
39075;BME280;24826;52.070;20.970;2023-04-05T06:23:30;61500.06;;;-147.04;84.48
39075;BME280;24826;52.070;20.970;2023-04-05T06:26:23;61446.38;;;-147.04;84.38
39075;BME280;24826;52.070;20.970;2023-04-05T06:29:10;61508.03;;;-147.04;84.28
39075;BME280;24826;52.070;20.970;2023-04-05T06:31:54;61462.28;;;-147.04;84.35
39075;BME280;24826;52.070;20.970;2023-04-05T06:34:39;61462.28;;;-147.04;85.07
39075;BME280;24826;52.070;20.970;2023-04-05T06:37:24;61460.31;;;-147.04;84.88
39075;BME280;24826;52.070;20.970;2023-04-05T06:40:09;61464.28;;;-147.04;84.15
39075;BME280;24826;52.070;20.970;2023-04-05T06:42:53;61452.34;;;-147.04;83.86
39075;BME280;24826;52.070;20.970;2023-04-05T06:45:38;61458.31;;;-147.04;83.18
39075;BME280;24826;52.070;20.970;2023-04-05T06:48:22;61464.28;;;-147.04;82.85
39075;BME280;24826;52.070;20.970;2023-04-05T06:51:07;61484.16;;;-147.04;82.09
39075;BME280;24826;52.070;20.970;2023-04-05T06:53:51;61448.38;;;-147.04;80.71
39075;BME280;24826;52.070;20.970;2023-04-05T06:56:36;61472.22;;;-147.04;80.24
39075;BME280;24826;52.070;20.970;2023-04-05T06:59:20;61424.50;;;-147.04;79.22
39075;BME280;24826;52.070;20.970;2023-04-05T07:02:05;61438.44;;;-147.04;80.07
39075;BME280;24826;52.070;20.970;2023-04-05T07:04:49;61460.31;;;-147.04;79.70
39075;BME280;24826;52.070;20.970;2023-04-05T07:07:41;61460.31;;;-147.04;78.04
39075;BME280;24826;52.070;20.970;2023-04-05T07:10:27;61452.34;;;-147.04;78.41
39075;BME280;24826;52.070;20.970;2023-04-05T07:13:12;61458.31;;;-147.04;77.11
39075;BME280;24826;52.070;20.970;2023-04-05T07:16:00;61422.53;;;-147.04;76.81
39075;BME280;24826;52.070;20.970;2023-04-05T07:18:45;61432.47;;;-147.04;78.41
39075;BME280;24826;52.070;20.970;2023-04-05T07:21:29;61454.34;;;-147.04;77.82
39075;BME280;24826;52.070;20.970;2023-04-05T07:24:14;61468.25;;;-147.04;77.88
39075;BME280;24826;52.070;20.970;2023-04-05T07:26:58;61464.28;;;-147.04;76.05
39075;BME280;24826;52.070;20.970;2023-04-05T07:29:43;61436.44;;;-147.04;73.03
39075;BME280;24826;52.070;20.970;2023-04-05T07:32:27;61462.28;;;-147.04;73.95
39075;BME280;24826;52.070;20.970;2023-04-05T07:35:12;61414.56;;;-147.04;73.23
39075;BME280;24826;52.070;20.970;2023-04-05T07:37:57;61452.34;;;-147.04;71.20
39075;BME280;24826;52.070;20.970;2023-04-05T07:40:42;61414.56;;;-147.04;70.81
39075;BME280;24826;52.070;20.970;2023-04-05T07:43:26;61440.41;;;-147.04;68.37
39075;BME280;24826;52.070;20.970;2023-04-05T07:46:11;61436.44;;;-147.04;65.22
39075;BME280;24826;52.070;20.970;2023-04-05T07:48:55;61444.41;;;-147.04;64.33
39075;BME280;24826;52.070;20.970;2023-04-05T07:51:41;61436.44;;;-147.04;63.06
39075;BME280;24826;52.070;20.970;2023-04-05T07:54:26;61468.25;;;-147.04;61.95
39075;BME280;24826;52.070;20.970;2023-04-05T07:57:18;61450.34;;;-147.04;59.54
39075;BME280;24826;52.070;20.970;2023-04-05T08:00:03;61452.34;;;-147.04;59.01
39075;BME280;24826;52.070;20.970;2023-04-05T08:02:50;61434.44;;;-147.04;57.40
39075;BME280;24826;52.070;20.970;2023-04-05T08:05:34;61414.56;;;-147.04;57.52
39075;BME280;24826;52.070;20.970;2023-04-05T08:08:19;61466.25;;;-147.04;57.62
39075;BME280;24826;52.070;20.970;2023-04-05T08:11:03;61434.44;;;-147.04;56.93
39075;BME280;24826;52.070;20.970;2023-04-05T08:13:48;61432.47;;;-147.04;56.53
39075;BME280;24826;52.070;20.970;2023-04-05T08:16:32;61460.31;;;-147.04;56.65
39075;BME280;24826;52.070;20.970;2023-04-05T08:19:16;61420.53;;;-147.04;56.17
39075;BME280;24826;52.070;20.970;2023-04-05T08:22:01;61412.56;;;-147.04;56.00
39075;BME280;24826;52.070;20.970;2023-04-05T08:24:45;61432.47;;;-147.04;54.85
39075;BME280;24826;52.070;20.970;2023-04-05T08:27:30;61388.72;;;-147.04;54.00
39075;BME280;24826;52.070;20.970;2023-04-05T08:30:14;61436.44;;;-147.04;53.92
39075;BME280;24826;52.070;20.970;2023-04-05T08:32:59;61448.38;;;-147.04;52.22
39075;BME280;24826;52.070;20.970;2023-04-05T08:35:44;61374.78;;;-147.04;53.43
39075;BME280;24826;52.070;20.970;2023-04-05T08:38:28;61460.31;;;-147.04;53.25
39075;BME280;24826;52.070;20.970;2023-04-05T08:41:22;61426.50;;;-147.04;54.21
39075;BME280;24826;52.070;20.970;2023-04-05T08:44:09;61424.50;;;-147.04;52.21
39075;BME280;24826;52.070;20.970;2023-04-05T08:46:55;61432.47;;;-147.04;51.15
39075;BME280;24826;52.070;20.970;2023-04-05T08:49:44;61440.41;;;-147.04;52.60
39075;BME280;24826;52.070;20.970;2023-04-05T08:52:30;61416.56;;;-147.04;51.28
39075;BME280;24826;52.070;20.970;2023-04-05T08:55:16;61454.34;;;-147.04;51.60
39075;BME280;24826;52.070;20.970;2023-04-05T08:58:02;61436.44;;;-147.04;51.88
39075;BME280;24826;52.070;20.970;2023-04-05T09:00:51;61428.47;;;-147.04;53.22
39075;BME280;24826;52.070;20.970;2023-04-05T09:03:36;61426.50;;;-147.04;53.11
39075;BME280;24826;52.070;20.970;2023-04-05T09:06:23;61428.47;;;-147.04;53.27
39075;BME280;24826;52.070;20.970;2023-04-05T09:09:10;61428.47;;;-147.04;54.35
39075;BME280;24826;52.070;20.970;2023-04-05T09:11:55;61416.56;;;-147.04;53.24
39075;BME280;24826;52.070;20.970;2023-04-05T09:14:40;61430.47;;;-147.04;52.02
39075;BME280;24826;52.070;20.970;2023-04-05T09:17:27;61444.41;;;-147.04;52.81
39075;BME280;24826;52.070;20.970;2023-04-05T09:20:12;61454.34;;;-147.04;51.10
39075;BME280;24826;52.070;20.970;2023-04-05T09:22:56;61438.44;;;-147.04;50.41
39075;BME280;24826;52.070;20.970;2023-04-05T09:25:41;61436.44;;;-147.04;51.07
39075;BME280;24826;52.070;20.970;2023-04-05T09:28:40;61428.47;;;-147.04;50.09
39075;BME280;24826;52.070;20.970;2023-04-05T09:31:33;61438.44;;;-147.04;49.95
39075;BME280;24826;52.070;20.970;2023-04-05T09:34:19;61388.72;;;-147.04;49.49
39075;BME280;24826;52.070;20.970;2023-04-05T09:37:19;61541.81;;;-147.04;48.14
39075;BME280;24826;52.070;20.970;2023-04-05T09:40:04;61440.41;;;-147.04;46.22
39075;BME280;24826;52.070;20.970;2023-04-05T09:42:50;61480.19;;;-147.04;44.84
39075;BME280;24826;52.070;20.970;2023-04-05T09:45:39;61382.75;;;-147.04;44.79
39075;BME280;24826;52.070;20.970;2023-04-05T09:48:49;61420.53;;;-147.04;45.13
39075;BME280;24826;52.070;20.970;2023-04-05T09:51:36;61452.34;;;-147.04;44.09
39075;BME280;24826;52.070;20.970;2023-04-05T09:54:21;61400.66;;;-147.04;43.67
39075;BME280;24826;52.070;20.970;2023-04-05T09:57:05;61414.56;;;-147.04;44.39
39075;BME280;24826;52.070;20.970;2023-04-05T09:59:50;61404.63;;;-147.04;44.79
39075;BME280;24826;52.070;20.970;2023-04-05T10:02:38;61402.63;;;-147.04;44.01
39075;BME280;24826;52.070;20.970;2023-04-05T10:05:26;61418.53;;;-147.04;43.40
39075;BME280;24826;52.070;20.970;2023-04-05T10:08:11;61408.59;;;-147.04;42.28
39075;BME280;24826;52.070;20.970;2023-04-05T10:10:57;61360.88;;;-147.04;42.32
39075;BME280;24826;52.070;20.970;2023-04-05T10:13:43;61392.69;;;-147.04;42.81
39075;BME280;24826;52.070;20.970;2023-04-05T10:16:32;61490.13;;;-147.04;43.12
39075;BME280;24826;52.070;20.970;2023-04-05T10:19:34;61404.63;;;-147.04;44.02
39075;BME280;24826;52.070;20.970;2023-04-05T10:22:31;61390.72;;;-147.04;44.59
39075;BME280;24826;52.070;20.970;2023-04-05T10:25:28;61428.47;;;-147.04;44.99
39075;BME280;24826;52.070;20.970;2023-04-05T10:28:39;61372.81;;;-147.04;44.27
39075;BME280;24826;52.070;20.970;2023-04-05T10:31:58;61585.56;;;-147.04;43.19
39075;BME280;24826;52.070;20.970;2023-04-05T10:34:49;61404.63;;;-147.04;43.35
39075;BME280;24826;52.070;20.970;2023-04-05T10:37:48;61404.63;;;-147.04;43.84
39075;BME280;24826;52.070;20.970;2023-04-05T10:40:37;61412.56;;;-147.04;43.49
39075;BME280;24826;52.070;20.970;2023-04-05T10:43:25;61412.56;;;-147.04;43.84
39075;BME280;24826;52.070;20.970;2023-04-05T10:46:10;61396.66;;;-147.04;43.43
39075;BME280;24826;52.070;20.970;2023-04-05T10:49:11;61390.72;;;-147.04;43.17
39075;BME280;24826;52.070;20.970;2023-04-05T10:52:01;61410.59;;;-147.04;42.31
39075;BME280;24826;52.070;20.970;2023-04-05T10:54:45;61372.81;;;-147.04;41.82
39075;BME280;24826;52.070;20.970;2023-04-05T10:57:32;61398.66;;;-147.04;42.09
39075;BME280;24826;52.070;20.970;2023-04-05T11:00:17;61400.66;;;-147.04;42.21
39075;BME280;24826;52.070;20.970;2023-04-05T11:03:02;61364.84;;;-147.04;42.63
39075;BME280;24826;52.070;20.970;2023-04-05T11:05:46;61416.56;;;-147.04;41.45
39075;BME280;24826;52.070;20.970;2023-04-05T11:08:31;61380.75;;;-147.04;41.97
39075;BME280;24826;52.070;20.970;2023-04-05T11:11:17;61384.75;;;-147.04;43.53
39075;BME280;24826;52.070;20.970;2023-04-05T11:14:16;61341.00;;;-147.04;44.49
39075;BME280;24826;52.070;20.970;2023-04-05T11:17:02;61368.84;;;-147.04;45.88
39075;BME280;24826;52.070;20.970;2023-04-05T11:19:48;61356.91;;;-147.04;45.37
39075;BME280;24826;52.070;20.970;2023-04-05T11:22:35;61376.78;;;-147.04;45.89
39075;BME280;24826;52.070;20.970;2023-04-05T11:25:23;61370.81;;;-147.04;47.11
39075;BME280;24826;52.070;20.970;2023-04-05T11:28:08;61360.88;;;-147.04;46.70
39075;BME280;24826;52.070;20.970;2023-04-05T11:30:53;61392.69;;;-147.04;47.00
39075;BME280;24826;52.070;20.970;2023-04-05T11:36:38;61382.75;;;-147.04;45.67
39075;BME280;24826;52.070;20.970;2023-04-05T11:39:25;61370.81;;;-147.04;45.71
39075;BME280;24826;52.070;20.970;2023-04-05T11:42:10;61384.75;;;-147.04;46.19
39075;BME280;24826;52.070;20.970;2023-04-05T11:44:55;61337.00;;;-147.04;45.76
39075;BME280;24826;52.070;20.970;2023-04-05T11:47:40;61360.88;;;-147.04;45.86
39075;BME280;24826;52.070;20.970;2023-04-05T11:50:25;61352.94;;;-147.04;45.89
39075;BME280;24826;52.070;20.970;2023-04-05T11:53:14;61368.84;;;-147.04;46.26
39075;BME280;24826;52.070;20.970;2023-04-05T11:56:09;61380.75;;;-147.04;45.96
39075;BME280;24826;52.070;20.970;2023-04-05T11:58:59;61539.84;;;-147.04;45.02
39075;BME280;24826;52.070;20.970;2023-04-05T12:01:44;61392.69;;;-147.04;45.28
39075;BME280;24826;52.070;20.970;2023-04-05T12:04:29;61382.75;;;-147.04;45.60
39075;BME280;24826;52.070;20.970;2023-04-05T12:07:18;61380.75;;;-147.04;45.18
39075;BME280;24826;52.070;20.970;2023-04-05T12:12:48;61390.72;;;-147.04;43.84
39075;BME280;24826;52.070;20.970;2023-04-05T12:15:37;61390.72;;;-147.04;43.87
39075;BME280;24826;52.070;20.970;2023-04-05T12:18:24;61370.81;;;-147.04;43.61
39075;BME280;24826;52.070;20.970;2023-04-05T12:21:09;61348.94;;;-147.04;42.57
39075;BME280;24826;52.070;20.970;2023-04-05T12:23:54;61374.78;;;-147.04;42.42
39075;BME280;24826;52.070;20.970;2023-04-05T12:26:39;61366.84;;;-147.04;42.49
39075;BME280;24826;52.070;20.970;2023-04-05T12:29:23;61404.63;;;-147.04;42.10
39075;BME280;24826;52.070;20.970;2023-04-05T12:32:07;61416.56;;;-147.04;41.72
39075;BME280;24826;52.070;20.970;2023-04-05T12:34:53;61464.28;;;-147.04;40.16
39075;BME280;24826;52.070;20.970;2023-04-05T12:37:41;61414.56;;;-147.04;40.68
39075;BME280;24826;52.070;20.970;2023-04-05T12:40:26;61404.63;;;-147.04;39.18
39075;BME280;24826;52.070;20.970;2023-04-05T12:43:11;61390.72;;;-147.04;38.77
39075;BME280;24826;52.070;20.970;2023-04-05T12:45:56;61406.63;;;-147.04;38.69
39075;BME280;24826;52.070;20.970;2023-04-05T12:48:41;61372.81;;;-147.04;39.18
39075;BME280;24826;52.070;20.970;2023-04-05T12:51:25;61372.81;;;-147.04;38.33
39075;BME280;24826;52.070;20.970;2023-04-05T12:54:13;61384.75;;;-147.04;38.65
39075;BME280;24826;52.070;20.970;2023-04-05T12:57:00;61384.75;;;-147.04;38.29
39075;BME280;24826;52.070;20.970;2023-04-05T12:59:47;61380.75;;;-147.04;38.08
39075;BME280;24826;52.070;20.970;2023-04-05T13:02:31;61364.84;;;-147.04;38.53
39075;BME280;24826;52.070;20.970;2023-04-05T13:05:15;61356.91;;;-147.04;37.86
39075;BME280;24826;52.070;20.970;2023-04-05T13:07:59;61356.91;;;-147.04;38.62
39075;BME280;24826;52.070;20.970;2023-04-05T13:10:45;61360.88;;;-147.04;38.49
39075;BME280;24826;52.070;20.970;2023-04-05T13:13:30;61386.72;;;-147.04;38.89
39075;BME280;24826;52.070;20.970;2023-04-05T13:16:15;61372.81;;;-147.04;38.27
39075;BME280;24826;52.070;20.970;2023-04-05T13:18:59;61372.81;;;-147.04;38.12
39075;BME280;24826;52.070;20.970;2023-04-05T13:21:43;61368.84;;;-147.04;38.10
39075;BME280;24826;52.070;20.970;2023-04-05T13:24:28;61380.75;;;-147.04;38.67
39075;BME280;24826;52.070;20.970;2023-04-05T13:27:12;61333.03;;;-147.04;37.66
39075;BME280;24826;52.070;20.970;2023-04-05T13:29:56;61360.88;;;-147.04;37.02
39075;BME280;24826;52.070;20.970;2023-04-05T13:32:41;61356.91;;;-147.04;37.25
39075;BME280;24826;52.070;20.970;2023-04-05T13:35:25;61362.88;;;-147.04;37.17
39075;BME280;24826;52.070;20.970;2023-04-05T13:38:10;61388.72;;;-147.04;37.70
39075;BME280;24826;52.070;20.970;2023-04-05T13:40:55;61352.94;;;-147.04;37.71
39075;BME280;24826;52.070;20.970;2023-04-05T13:43:40;61374.78;;;-147.04;37.66
39075;BME280;24826;52.070;20.970;2023-04-05T13:46:24;61390.72;;;-147.04;37.34
39075;BME280;24826;52.070;20.970;2023-04-05T13:49:08;61360.88;;;-147.04;37.61
39075;BME280;24826;52.070;20.970;2023-04-05T13:51:53;61372.81;;;-147.04;37.27
39075;BME280;24826;52.070;20.970;2023-04-05T13:54:37;61356.91;;;-147.04;37.46
39075;BME280;24826;52.070;20.970;2023-04-05T13:57:21;61362.88;;;-147.04;36.96
39075;BME280;24826;52.070;20.970;2023-04-05T14:00:07;61356.91;;;-147.04;37.82
39075;BME280;24826;52.070;20.970;2023-04-05T14:02:51;61364.84;;;-147.04;38.42
39075;BME280;24826;52.070;20.970;2023-04-05T14:05:36;61350.94;;;-147.04;37.58
39075;BME280;24826;52.070;20.970;2023-04-05T14:08:20;61368.84;;;-147.04;37.14
39075;BME280;24826;52.070;20.970;2023-04-05T14:11:06;61352.94;;;-147.04;37.82
39075;BME280;24826;52.070;20.970;2023-04-05T14:13:50;61348.94;;;-147.04;37.82
39075;BME280;24826;52.070;20.970;2023-04-05T14:16:35;61396.66;;;-147.04;37.38
39075;BME280;24826;52.070;20.970;2023-04-05T14:19:21;61380.75;;;-147.04;37.49